Time;durP1;ratioP1;P1;durP2;ratioP2;P2;SDS_P1;SDS_P2;PMS_P1;PMS_P2;Temp;Humidity;BMP_temperature;BMP_pressure;BME280_temperature;BME280_humidity;BME280_pressure;Samples;Min_cycle;Max_cycle;Signal;HPM_P1;HPM_P2
2022/10/25 00:01:18;;;;;;;18.50;9.23;;;12.20;99.90;;;;;;4950270;29;20526;-80
2022/10/25 00:03:44;;;;;;;22.35;10.15;;;12.50;99.90;;;;;;4948908;28;20063;-77
2022/10/25 00:06:11;;;;;;;15.18;9.02;;;12.60;99.90;;;;;;4949071;28;20478;-80
2022/10/25 00:08:37;;;;;;;27.25;10.32;;;12.40;99.90;;;;;;4948210;28;20554;-80
2022/10/25 00:11:03;;;;;;;19.70;9.88;;;12.50;99.90;;;;;;4928622;28;20059;-77
2022/10/25 00:13:29;;;;;;;17.13;8.75;;;12.50;99.90;;;;;;4949097;28;20062;-80
2022/10/25 00:15:55;;;;;;;21.77;11.00;;;12.50;99.90;;;;;;4951245;28;20055;-81
2022/10/25 00:18:21;;;;;;;17.90;10.55;;;12.60;99.90;;;;;;4946444;28;20506;-76
2022/10/25 00:20:46;;;;;;;23.30;10.60;;;12.50;99.90;;;;;;4919461;29;20039;-80
2022/10/25 00:23:13;;;;;;;27.38;12.35;;;12.10;99.90;;;;;;4950925;28;20047;-78
2022/10/25 00:25:39;;;;;;;23.15;11.20;;;12.60;99.90;;;;;;4951240;29;20047;-79
2022/10/25 00:28:04;;;;;;;20.30;10.90;;;12.60;99.90;;;;;;4949342;29;20050;-81
2022/10/25 00:30:30;;;;;;;25.20;12.88;;;12.50;99.90;;;;;;4932262;29;20065;-77
2022/10/25 00:32:56;;;;;;;21.10;11.73;;;12.20;99.90;;;;;;4952701;28;20043;-79
2022/10/25 00:35:23;;;;;;;23.33;11.40;;;12.70;99.90;;;;;;4941909;28;20040;-79
2022/10/25 00:37:49;;;;;;;19.58;11.25;;;12.30;99.90;;;;;;4948000;29;20043;-80
2022/10/25 00:40:15;;;;;;;20.33;11.73;;;12.60;99.90;;;;;;4934731;29;20058;-79
2022/10/25 00:42:40;;;;;;;28.73;13.10;;;12.80;99.90;;;;;;4935538;29;20046;-81
2022/10/25 00:45:26;;;;;;;19.88;10.88;;;12.30;99.90;;;;;;4950726;28;20324;-79
2022/10/25 00:48:02;;;;;;;38.75;16.02;;;12.20;99.90;;;;;;4952160;29;20043;-77
2022/10/25 00:50:47;;;;;;;23.27;12.50;;;12.70;99.90;;;;;;4951125;28;20110;-75
2022/10/25 00:53:20;;;;;;;23.48;12.80;;;12.50;99.90;;;;;;4945790;28;20043;-80
2022/10/25 00:55:58;;;;;;;25.67;13.00;;;12.40;99.90;;;;;;4952408;28;20123;-79
2022/10/25 00:58:27;;;;;;;21.13;12.68;;;12.20;99.90;;;;;;4950494;28;20047;-79
2022/10/25 01:00:52;;;;;;;24.80;12.02;;;12.30;99.90;;;;;;4950654;28;20603;-78
2022/10/25 01:03:21;;;;;;;23.90;12.77;;;12.60;99.90;;;;;;4950240;29;20039;-79
2022/10/25 01:05:47;;;;;;;26.15;13.27;;;12.80;99.90;;;;;;4945474;28;20057;-79
2022/10/25 01:08:14;;;;;;;28.95;14.13;;;12.30;99.90;;;;;;4948115;28;20050;-80
2022/10/25 01:10:40;;;;;;;26.45;12.68;;;12.30;99.90;;;;;;4942369;29;20043;-79
2022/10/25 01:13:06;;;;;;;26.17;13.13;;;12.30;99.90;;;;;;4951872;29;20070;-80
2022/10/25 01:15:52;;;;;;;22.88;13.15;;;12.60;99.90;;;;;;4946809;28;20151;-76
2022/10/25 01:18:23;;;;;;;27.00;13.65;;;12.40;99.90;;;;;;4933715;29;20442;-77
2022/10/25 01:21:16;;;;;;;31.08;14.13;;;12.90;99.90;;;;;;4931987;29;20710;-80
2022/10/25 01:24:03;;;;;;;22.85;11.80;;;12.70;99.90;;;;;;4939874;28;20046;-74
2022/10/25 01:27:07;;;;;;;23.15;12.95;;;13.10;99.90;;;;;;4948081;29;20050;-81
2022/10/25 01:29:38;;;;;;;27.00;12.68;;;12.60;99.90;;;;;;4921686;28;20051;-80
2022/10/25 01:32:15;;;;;;;15.38;10.13;;;13.20;99.90;;;;;;4952813;29;20043;-80
2022/10/25 01:34:46;;;;;;;26.70;11.90;;;12.90;99.90;;;;;;4950953;28;20047;-78
2022/10/25 01:37:35;;;;;;;22.48;12.23;;;12.60;99.90;;;;;;4932298;29;20490;-78
2022/10/25 01:40:10;;;;;;;21.13;10.27;;;12.70;99.90;;;;;;4950138;29;20047;-81
2022/10/25 01:42:56;;;;;;;20.65;10.95;;;13.00;99.90;;;;;;4929201;29;20047;-79
2022/10/25 01:45:30;;;;;;;20.15;10.55;;;12.50;99.90;;;;;;4944656;28;20047;-79
2022/10/25 01:48:06;;;;;;;24.67;9.77;;;13.20;99.90;;;;;;4933564;29;20418;-79
2022/10/25 01:50:38;;;;;;;23.00;11.98;;;13.00;99.90;;;;;;4934780;29;20059;-80
2022/10/25 01:53:04;;;;;;;17.73;10.20;;;13.10;99.90;;;;;;4931961;29;20086;-81
2022/10/25 01:55:48;;;;;;;20.95;12.68;;;12.70;99.90;;;;;;4949234;28;20054;-79
2022/10/25 01:58:22;;;;;;;15.82;9.90;;;12.60;99.90;;;;;;4941751;29;20066;-80
2022/10/25 02:01:00;;;;;;;21.13;9.95;;;12.70;99.90;;;;;;4944820;28;20045;-82
2022/10/25 02:03:49;;;;;;;24.42;11.80;;;13.00;99.90;;;;;;4952979;29;20090;-75
2022/10/25 02:06:48;;;;;;;23.80;10.35;;;13.10;99.90;;;;;;4951487;28;20151;-79
2022/10/25 02:09:24;;;;;;;26.92;11.57;;;13.10;99.90;;;;;;4939955;29;20141;-82
2022/10/25 02:11:52;;;;;;;18.05;9.80;;;13.10;99.90;;;;;;4944418;29;20047;-79
2022/10/25 02:14:29;;;;;;;24.10;11.38;;;12.90;99.90;;;;;;4931135;29;20047;-80
2022/10/25 02:17:06;;;;;;;22.67;9.82;;;13.30;99.90;;;;;;4939961;28;20051;-79
2022/10/25 02:19:39;;;;;;;21.92;10.13;;;13.10;99.90;;;;;;4939665;28;20940;-82
2022/10/25 02:22:08;;;;;;;22.13;10.30;;;13.20;99.90;;;;;;4932260;29;20047;-82
2022/10/25 02:24:35;;;;;;;23.52;9.80;;;13.10;99.90;;;;;;4947453;28;20040;-77
2022/10/25 02:27:03;;;;;;;24.55;10.82;;;12.60;99.90;;;;;;4948242;28;20054;-79
2022/10/25 02:29:32;;;;;;;22.30;8.93;;;12.90;99.90;;;;;;4949728;29;20090;-74
2022/10/25 02:31:58;;;;;;;19.88;10.68;;;13.20;99.90;;;;;;4949364;28;22164;-78
2022/10/25 02:34:23;;;;;;;24.20;10.10;;;13.30;99.90;;;;;;4939338;28;20047;-79
2022/10/25 02:36:50;;;;;;;18.95;9.32;;;12.90;99.90;;;;;;4945085;29;20099;-79
2022/10/25 02:39:17;;;;;;;20.88;9.45;;;13.30;99.90;;;;;;4931672;29;20049;-78
2022/10/25 02:41:43;;;;;;;21.60;9.73;;;13.30;99.90;;;;;;4932302;29;20086;-80
2022/10/25 02:44:08;;;;;;;17.48;9.52;;;12.70;99.90;;;;;;4958885;28;20047;-73
2022/10/25 02:46:34;;;;;;;20.52;10.10;;;13.20;99.90;;;;;;4946869;28;20123;-80
2022/10/25 02:49:00;;;;;;;23.15;11.30;;;12.60;99.90;;;;;;4947600;29;20093;-80
2022/10/25 02:51:25;;;;;;;20.35;8.25;;;12.70;99.90;;;;;;4948586;28;20380;-75
2022/10/25 02:53:51;;;;;;;19.50;9.02;;;13.00;99.90;;;;;;4948828;29;21972;-80
2022/10/25 02:56:19;;;;;;;16.67;8.40;;;13.40;99.90;;;;;;4947538;28;20035;-81
2022/10/25 02:58:45;;;;;;;17.88;7.75;;;13.20;99.90;;;;;;4949972;29;20043;-80
2022/10/25 03:01:12;;;;;;;17.77;8.13;;;12.90;99.90;;;;;;4942860;28;20079;-74
2022/10/25 03:03:38;;;;;;;17.65;8.35;;;13.10;99.90;;;;;;4946152;29;20043;-80
2022/10/25 03:06:05;;;;;;;22.27;8.50;;;12.80;99.90;;;;;;4949419;28;20047;-78
2022/10/25 03:08:31;;;;;;;15.68;8.32;;;12.80;99.90;;;;;;4959425;28;20078;-82
2022/10/25 03:10:57;;;;;;;19.63;9.18;;;13.50;99.90;;;;;;4948140;29;20063;-80
2022/10/25 03:13:23;;;;;;;19.67;8.13;;;13.40;99.90;;;;;;4950388;29;20059;-77
2022/10/25 03:15:49;;;;;;;18.60;7.60;;;13.50;99.90;;;;;;4928495;29;20048;-80
2022/10/25 03:18:15;;;;;;;16.33;7.38;;;13.10;99.90;;;;;;4944050;29;20087;-78
2022/10/25 03:20:41;;;;;;;17.35;7.03;;;13.60;99.90;;;;;;4949201;28;20079;-81
2022/10/25 03:23:07;;;;;;;20.27;8.60;;;12.80;99.90;;;;;;4953303;28;20126;-79
2022/10/25 03:25:33;;;;;;;22.20;8.30;;;13.00;99.90;;;;;;4950730;28;20425;-81
2022/10/25 03:28:02;;;;;;;24.35;9.55;;;13.00;99.90;;;;;;4932814;29;20027;-78
2022/10/25 03:30:29;;;;;;;26.20;9.55;;;13.00;99.90;;;;;;4950804;28;20039;-80
2022/10/25 03:32:55;;;;;;;24.27;9.48;;;12.70;99.90;;;;;;4948472;29;20059;-81
2022/10/25 03:35:21;;;;;;;19.75;9.48;;;12.80;99.90;;;;;;4946782;29;20052;-81
2022/10/25 03:37:48;;;;;;;29.30;9.95;;;13.50;99.90;;;;;;4942962;28;20130;-77
2022/10/25 03:40:13;;;;;;;33.05;10.13;;;13.10;99.90;;;;;;4949213;28;20067;-76
2022/10/25 03:42:39;;;;;;;26.52;9.70;;;13.10;99.90;;;;;;4948457;29;20086;-82
2022/10/25 03:45:05;;;;;;;28.48;10.48;;;12.70;99.90;;;;;;4950100;29;20068;-82
2022/10/25 03:47:31;;;;;;;24.88;11.75;;;13.20;99.90;;;;;;4943847;28;20043;-78
2022/10/25 03:49:56;;;;;;;26.38;9.93;;;13.20;99.90;;;;;;4953795;29;20471;-81
2022/10/25 03:52:22;;;;;;;20.05;10.70;;;13.30;99.90;;;;;;4950969;28;20450;-81
2022/10/25 03:54:48;;;;;;;24.75;9.75;;;13.20;99.90;;;;;;4952860;29;20372;-77
2022/10/25 03:57:13;;;;;;;29.38;10.52;;;12.80;99.90;;;;;;4933099;29;20078;-80
2022/10/25 03:59:39;;;;;;;27.70;9.85;;;13.20;99.90;;;;;;4953486;28;20054;-73
2022/10/25 04:02:04;;;;;;;27.10;10.15;;;13.10;99.90;;;;;;4951645;28;20047;-74
2022/10/25 04:04:30;;;;;;;32.67;8.75;;;12.60;99.90;;;;;;4951205;29;20040;-81
2022/10/25 04:06:56;;;;;;;24.80;11.80;;;13.00;99.90;;;;;;4932516;29;20058;-80
2022/10/25 04:09:21;;;;;;;21.52;8.75;;;12.90;99.90;;;;;;4941717;29;20044;-74
2022/10/25 04:11:47;;;;;;;17.52;8.98;;;12.50;99.90;;;;;;4946887;28;20043;-80
2022/10/25 04:14:13;;;;;;;19.52;10.18;;;12.80;99.90;;;;;;4952558;29;20047;-80
2022/10/25 04:16:38;;;;;;;24.33;9.75;;;12.40;99.90;;;;;;4933138;29;20066;-74
2022/10/25 04:19:04;;;;;;;21.15;8.02;;;12.70;99.90;;;;;;4951787;29;20070;-80
2022/10/25 04:21:30;;;;;;;20.23;8.80;;;12.30;99.90;;;;;;4946469;29;20518;-80
2022/10/25 04:23:55;;;;;;;28.88;9.45;;;12.90;99.90;;;;;;4951053;29;20039;-75
2022/10/25 04:26:21;;;;;;;21.55;7.72;;;12.90;99.90;;;;;;4941312;28;20040;-79
2022/10/25 04:28:55;;;;;;;41.25;9.18;;;12.40;99.90;;;;;;4917351;29;20126;-79
2022/10/25 04:31:22;;;;;;;23.48;9.38;;;12.90;99.90;;;;;;4937185;29;20584;-80
2022/10/25 04:33:52;;;;;;;18.10;8.75;;;12.30;99.90;;;;;;4951413;29;20047;-80
2022/10/25 04:36:18;;;;;;;26.98;10.02;;;12.80;99.90;;;;;;4950328;29;20043;-75
2022/10/25 04:38:50;;;;;;;20.50;8.90;;;12.30;99.90;;;;;;4950950;28;20043;-81
2022/10/25 04:41:16;;;;;;;15.35;7.05;;;12.20;99.90;;;;;;4950282;28;20138;-77
2022/10/25 04:43:42;;;;;;;18.17;7.85;;;12.90;99.90;;;;;;4952544;29;20043;-73
2022/10/25 04:46:08;;;;;;;20.65;8.48;;;12.80;99.90;;;;;;4951794;28;20066;-80
2022/10/25 04:48:39;;;;;;;24.58;9.50;;;12.70;99.90;;;;;;4931269;29;20058;-74
2022/10/25 04:51:05;;;;;;;22.75;9.02;;;12.60;99.90;;;;;;4934425;29;20050;-80
2022/10/25 04:53:31;;;;;;;25.98;8.95;;;12.60;99.90;;;;;;4931422;29;20058;-83
2022/10/25 04:56:03;;;;;;;22.83;9.23;;;12.30;99.90;;;;;;4951285;29;20039;-78
2022/10/25 04:58:29;;;;;;;22.35;9.23;;;12.80;99.90;;;;;;4948986;28;20071;-81
2022/10/25 05:01:00;;;;;;;22.92;9.32;;;12.80;99.90;;;;;;4933302;29;20078;-80
2022/10/25 05:03:26;;;;;;;22.52;10.57;;;12.20;99.90;;;;;;4950105;28;20070;-78
2022/10/25 05:05:52;;;;;;;28.55;9.27;;;12.20;99.90;;;;;;4951938;29;20170;-80
2022/10/25 05:08:17;;;;;;;31.50;9.35;;;12.70;99.90;;;;;;4947433;28;20126;-81
2022/10/25 05:10:43;;;;;;;28.55;9.88;;;12.20;99.90;;;;;;4950448;29;20043;-81
2022/10/25 05:13:08;;;;;;;23.15;9.60;;;12.20;99.90;;;;;;4950200;28;20058;-79
2022/10/25 05:15:34;;;;;;;24.20;9.70;;;12.60;99.90;;;;;;4936971;28;20047;-80
2022/10/25 05:18:00;;;;;;;32.20;10.95;;;12.20;99.90;;;;;;4940816;28;20058;-79
2022/10/25 05:20:27;;;;;;;30.98;10.05;;;12.70;99.90;;;;;;4944516;29;20139;-75
2022/10/25 05:22:52;;;;;;;30.27;10.85;;;12.50;99.90;;;;;;4950467;28;20039;-81
2022/10/25 05:25:19;;;;;;;33.63;12.05;;;12.70;99.90;;;;;;4950484;29;20039;-80
2022/10/25 05:27:44;;;;;;;35.00;11.18;;;12.40;99.90;;;;;;4950977;28;20434;-81
2022/10/25 05:30:11;;;;;;;31.20;10.68;;;12.20;99.90;;;;;;4952516;29;20095;-80
2022/10/25 05:32:36;;;;;;;24.08;11.07;;;12.20;99.90;;;;;;4950998;29;20066;-80
2022/10/25 05:35:02;;;;;;;26.13;10.63;;;12.20;99.90;;;;;;4948557;28;20482;-81
2022/10/25 05:37:28;;;;;;;27.00;9.20;;;12.20;99.90;;;;;;4946182;28;20383;-73
2022/10/25 05:39:53;;;;;;;27.42;9.10;;;12.20;99.90;;;;;;4929913;29;20450;-80
2022/10/25 05:42:20;;;;;;;26.23;8.75;;;12.30;99.90;;;;;;4949711;29;20039;-81
2022/10/25 05:44:45;;;;;;;29.02;10.40;;;12.10;99.90;;;;;;4950947;28;20043;-80
2022/10/25 05:47:11;;;;;;;27.33;7.97;;;12.20;99.90;;;;;;4932866;29;20093;-82
2022/10/25 05:49:39;;;;;;;32.97;9.68;;;12.20;99.90;;;;;;4932697;29;20043;-76
2022/10/25 05:52:08;;;;;;;20.70;8.68;;;12.40;99.90;;;;;;4949544;29;20051;-75
2022/10/25 05:54:34;;;;;;;27.17;7.88;;;12.00;99.90;;;;;;4949334;28;20074;-79
2022/10/25 05:57:00;;;;;;;20.25;7.95;;;12.10;99.90;;;;;;4932212;29;20502;-81
2022/10/25 05:59:25;;;;;;;28.45;7.95;;;12.20;99.90;;;;;;4948563;28;20423;-81
2022/10/25 06:01:51;;;;;;;18.83;7.22;;;12.20;99.90;;;;;;4938486;29;20471;-79
2022/10/25 06:04:17;;;;;;;23.90;9.38;;;12.60;99.90;;;;;;4948031;29;20426;-73
2022/10/25 06:06:45;;;;;;;25.95;7.15;;;12.70;99.90;;;;;;4948538;28;20046;-80
2022/10/25 06:09:12;;;;;;;29.77;8.13;;;12.40;99.90;;;;;;4942863;28;20043;-76
2022/10/25 06:11:38;;;;;;;26.20;8.13;;;12.20;99.90;;;;;;4947858;29;20359;-77
2022/10/25 06:14:05;;;;;;;21.50;6.72;;;12.70;99.90;;;;;;4943269;29;20051;-74
2022/10/25 06:16:30;;;;;;;24.60;8.38;;;12.60;99.90;;;;;;4942934;28;20040;-78
2022/10/25 06:18:56;;;;;;;23.55;9.38;;;12.80;99.90;;;;;;4950992;29;20035;-78
2022/10/25 06:21:27;;;;;;;32.83;10.40;;;12.30;99.90;;;;;;4949854;29;20039;-76
2022/10/25 06:23:53;;;;;;;20.35;6.88;;;12.40;99.90;;;;;;4950835;29;20043;-76
2022/10/25 06:26:24;;;;;;;23.13;5.60;;;12.90;99.90;;;;;;4948845;28;20447;-75
2022/10/25 06:28:55;;;;;;;19.27;6.57;;;12.40;99.90;;;;;;4948828;29;20044;-77
2022/10/25 06:31:21;;;;;;;22.40;7.32;;;12.30;99.90;;;;;;4915319;29;20438;-75
2022/10/25 06:33:47;;;;;;;22.45;7.53;;;12.30;99.90;;;;;;4931353;29;20111;-76
2022/10/25 06:36:22;;;;;;;20.83;6.35;;;12.30;99.90;;;;;;4948179;29;20106;-76
2022/10/25 06:38:48;;;;;;;25.35;7.30;;;12.90;99.90;;;;;;4913469;29;20101;-76
2022/10/25 06:41:19;;;;;;;23.73;6.05;;;12.80;99.90;;;;;;4938473;29;20463;-75
2022/10/25 06:43:45;;;;;;;24.40;5.43;;;12.50;99.90;;;;;;4946869;28;20085;-77
2022/10/25 06:46:19;;;;;;;33.47;7.80;;;12.40;99.90;;;;;;4950152;29;20039;-75
2022/10/25 06:48:45;;;;;;;23.30;5.22;;;12.30;99.90;;;;;;4930389;29;20109;-77
2022/10/25 06:51:10;;;;;;;15.18;4.47;;;12.70;99.90;;;;;;4946077;28;20553;-77
2022/10/25 06:53:37;;;;;;;22.02;5.03;;;12.80;99.90;;;;;;4921870;29;20087;-76
2022/10/25 06:56:05;;;;;;;19.77;6.38;;;12.20;99.90;;;;;;4940382;29;20090;-78
2022/10/25 06:58:32;;;;;;;9.93;5.07;;;12.60;99.90;;;;;;4943181;29;20118;-75
2022/10/25 07:01:03;;;;;;;30.73;5.60;;;12.20;99.90;;;;;;4940160;28;20139;-77
2022/10/25 07:03:33;;;;;;;17.00;4.50;;;12.80;99.90;;;;;;4928542;29;20051;-72
2022/10/25 07:06:06;;;;;;;;;;;12.50;99.90;;;;;;4947453;29;20131;-78
2022/10/25 07:08:33;;;;;;;27.30;5.55;;;12.20;99.90;;;;;;4949787;28;19926;-79
2022/10/25 07:10:59;;;;;;;20.95;4.45;;;12.50;99.90;;;;;;4950005;29;20057;-77
2022/10/25 07:13:25;;;;;;;17.10;5.72;;;12.20;99.90;;;;;;4946390;29;20086;-73
2022/10/25 07:15:51;;;;;;;20.90;5.50;;;12.40;99.90;;;;;;4933294;29;20529;-77
2022/10/25 07:18:16;;;;;;;22.88;5.50;;;12.80;99.90;;;;;;4948834;29;20043;-77
2022/10/25 07:20:47;;;;;;;22.90;5.68;;;12.30;99.90;;;;;;4948888;28;20051;-72
2022/10/25 07:23:16;;;;;;;16.90;4.93;;;12.30;99.90;;;;;;4948396;29;20051;-73
2022/10/25 07:25:42;;;;;;;13.75;3.97;;;12.50;99.90;;;;;;4950385;29;20040;-73
2022/10/25 07:28:08;;;;;;;17.95;5.03;;;12.40;99.90;;;;;;4951353;29;20450;-79
2022/10/25 07:30:34;;;;;;;15.77;5.00;;;12.40;99.90;;;;;;4931903;29;20153;-78
2022/10/25 07:33:01;;;;;;;18.77;5.82;;;12.70;99.90;;;;;;4949062;29;20079;-79
2022/10/25 07:35:27;;;;;;;19.38;6.22;;;13.10;99.90;;;;;;4932085;29;20069;-76
2022/10/25 07:37:53;;;;;;;19.15;4.53;;;12.60;99.90;;;;;;4948097;29;20114;-77
2022/10/25 07:40:18;;;;;;;16.60;4.20;;;12.60;99.90;;;;;;4951015;29;20051;-77
2022/10/25 07:42:44;;;;;;;23.67;4.78;;;12.60;99.90;;;;;;4943754;29;20443;-78
2022/10/25 07:45:10;;;;;;;22.00;5.80;;;12.60;99.90;;;;;;4930647;29;20443;-74
2022/10/25 07:47:35;;;;;;;21.50;5.47;;;12.50;99.90;;;;;;4946505;28;20430;-77
2022/10/25 07:50:01;;;;;;;19.60;5.53;;;12.70;99.90;;;;;;4928387;29;20055;-75
2022/10/25 07:52:27;;;;;;;20.33;6.93;;;13.10;99.90;;;;;;4959335;28;20347;-78
2022/10/25 07:54:52;;;;;;;26.60;6.97;;;13.20;99.90;;;;;;4929660;29;20114;-77
2022/10/25 07:57:18;;;;;;;24.40;6.00;;;12.80;99.90;;;;;;4914584;29;20390;-76
2022/10/25 07:59:43;;;;;;;28.98;7.85;;;12.80;99.90;;;;;;4919387;29;20055;-75
2022/10/25 08:02:11;;;;;;;15.35;5.43;;;12.90;99.90;;;;;;4927575;29;20047;-75
2022/10/25 08:04:36;;;;;;;24.55;7.13;;;13.40;99.90;;;;;;4929158;29;20051;-74
2022/10/25 08:07:02;;;;;;;19.85;5.38;;;13.00;99.90;;;;;;4947701;29;20129;-76
2022/10/25 08:09:27;;;;;;;23.13;6.60;;;13.60;99.90;;;;;;4939580;29;20047;-74
2022/10/25 08:11:53;;;;;;;18.92;5.45;;;12.90;99.90;;;;;;4930540;29;20046;-75
2022/10/25 08:14:19;;;;;;;26.95;6.68;;;13.80;99.90;;;;;;4947365;28;20051;-74
2022/10/25 08:16:45;;;;;;;17.17;7.13;;;13.10;99.90;;;;;;4943686;29;20380;-76
2022/10/25 08:19:11;;;;;;;22.02;6.53;;;13.20;99.90;;;;;;4948864;29;20352;-74
2022/10/25 08:21:36;;;;;;;27.20;7.90;;;13.10;99.90;;;;;;4948598;29;20047;-76
2022/10/25 08:24:02;;;;;;;32.35;7.93;;;13.80;99.90;;;;;;4946572;29;20054;-74
2022/10/25 08:26:28;;;;;;;29.00;7.50;;;13.80;99.90;;;;;;4947912;29;20465;-74
2022/10/25 08:28:53;;;;;;;26.23;8.05;;;13.20;99.90;;;;;;4943832;28;20047;-76
2022/10/25 08:31:19;;;;;;;33.35;12.40;;;13.90;99.90;;;;;;4949422;29;20134;-77
2022/10/25 08:33:45;;;;;;;24.40;7.35;;;13.30;99.90;;;;;;4921105;29;20048;-75
2022/10/25 08:36:11;;;;;;;30.25;9.25;;;14.00;99.90;;;;;;4934002;29;20934;-77
2022/10/25 08:38:36;;;;;;;24.15;9.88;;;13.90;99.90;;;;;;4930850;29;20043;-76
2022/10/25 08:41:13;;;;;;;19.58;8.05;;;13.40;99.90;;;;;;4950419;29;20039;-74
2022/10/25 08:43:51;;;;;;;20.77;9.82;;;13.40;99.90;;;;;;4951320;29;20114;-73
2022/10/25 08:46:25;;;;;;;20.30;8.57;;;13.30;99.90;;;;;;4931438;29;20058;-76
2022/10/25 08:49:00;;;;;;;28.85;10.02;;;13.90;99.90;;;;;;4933059;29;20878;-76
2022/10/25 08:51:29;;;;;;;27.48;9.45;;;13.50;99.90;;;;;;4944470;29;20043;-77
2022/10/25 08:53:59;;;;;;;20.10;8.77;;;13.50;99.90;;;;;;4952356;29;20047;-77
2022/10/25 08:56:27;;;;;;;28.83;10.10;;;13.50;99.90;;;;;;4946287;29;20094;-76
2022/10/25 08:59:01;;;;;;;23.95;10.63;;;14.20;99.90;;;;;;4944789;28;20414;-72
2022/10/25 09:01:39;;;;;;;29.38;9.48;;;13.70;99.90;;;;;;4942492;29;20051;-78
2022/10/25 09:04:04;;;;;;;19.23;9.18;;;14.40;99.90;;;;;;4935075;28;20051;-76
2022/10/25 09:06:51;;;;;;;23.23;9.38;;;14.40;99.90;;;;;;4932892;29;20461;-77
2022/10/25 09:09:32;;;;;;;24.80;8.90;;;14.20;99.90;;;;;;4951543;29;20047;-77
2022/10/25 09:12:34;;;;;;;19.92;8.25;;;14.00;99.90;;;;;;4947008;28;20039;-79
2022/10/25 09:15:25;;;;;;;24.10;7.63;;;13.90;99.90;;;;;;4927007;29;20134;-79
2022/10/25 09:18:02;;;;;;;19.00;8.23;;;14.10;99.90;;;;;;4941655;28;20039;-76
2022/10/25 09:20:40;;;;;;;23.23;7.45;;;14.30;99.90;;;;;;4933609;29;20053;-76
2022/10/25 09:23:22;;;;;;;26.88;10.27;;;14.00;99.90;;;;;;4942329;29;20078;-76
2022/10/25 09:26:09;;;;;;;21.95;7.72;;;14.70;99.90;;;;;;4927100;28;20044;-76
2022/10/25 09:28:52;;;;;;;18.38;6.47;;;14.10;99.90;;;;;;4926769;29;20138;-75
2022/10/25 09:31:22;;;;;;;13.88;6.30;;;14.30;99.90;;;;;;4918964;29;20051;-75
2022/10/25 09:33:55;;;;;;;24.52;6.78;;;14.20;99.90;;;;;;4941762;28;20071;-76
2022/10/25 09:36:21;;;;;;;44.60;7.90;;;14.90;99.90;;;;;;4938773;29;20364;-77
2022/10/25 09:38:55;;;;;;;21.58;7.00;;;14.70;99.90;;;;;;4916362;29;20073;-75
2022/10/25 09:41:32;;;;;;;18.98;5.75;;;15.00;99.90;;;;;;4924087;29;20102;-75
2022/10/25 09:44:27;;;;;;;24.38;5.93;;;14.50;99.90;;;;;;4934239;29;20145;-77
2022/10/25 09:47:10;;;;;;;25.45;5.95;;;15.00;99.90;;;;;;4948859;28;20134;-80
2022/10/25 09:49:58;;;;;;;17.70;5.00;;;14.80;99.90;;;;;;4952720;29;20505;-82
2022/10/25 09:52:40;;;;;;;13.48;4.45;;;14.90;99.90;;;;;;4933931;29;20398;-81
2022/10/25 09:55:26;;;;;;;19.88;5.07;;;14.30;99.90;;;;;;4953040;28;20367;-79
2022/10/25 09:57:53;;;;;;;20.33;5.65;;;14.70;99.90;;;;;;4953207;29;20035;-80
2022/10/25 10:00:19;;;;;;;11.82;2.90;;;14.60;99.90;;;;;;4918792;29;20051;-78
2022/10/25 10:02:45;;;;;;;15.90;3.80;;;14.60;99.90;;;;;;4950584;28;20043;-74
2022/10/25 10:05:29;;;;;;;39.35;4.10;;;14.30;99.90;;;;;;4953200;28;20047;-80
2022/10/25 10:07:55;;;;;;;12.25;2.90;;;14.80;99.90;;;;;;4951034;29;20044;-78
2022/10/25 10:10:31;;;;;;;13.68;3.85;;;14.50;99.90;;;;;;4933415;29;20047;-78
2022/10/25 10:13:04;;;;;;;14.63;2.90;;;14.50;99.90;;;;;;4951243;28;20064;-79
2022/10/25 10:15:43;;;;;;;13.32;3.10;;;14.50;99.90;;;;;;4950810;29;20364;-79
2022/10/25 10:18:23;;;;;;;13.10;3.55;;;14.60;99.90;;;;;;4906067;29;20058;-78
2022/10/25 10:21:00;;;;;;;12.73;2.72;;;14.80;99.90;;;;;;4934598;29;20065;-77
2022/10/25 10:23:35;;;;;;;22.33;4.00;;;14.70;99.90;;;;;;4932188;29;20047;-79
2022/10/25 10:26:19;;;;;;;16.08;4.55;;;15.10;99.90;;;;;;4952147;29;20043;-79
2022/10/25 10:28:50;;;;;;;19.13;3.63;;;14.80;99.90;;;;;;4951815;28;20051;-76
2022/10/25 10:31:18;;;;;;;12.27;3.33;;;15.10;99.90;;;;;;4951463;29;20054;-79
2022/10/25 10:33:50;;;;;;;33.30;4.95;;;14.80;99.90;;;;;;4945410;28;20110;-78
2022/10/25 10:36:25;;;;;;;39.47;5.90;;;15.20;99.90;;;;;;4943624;29;20142;-75
2022/10/25 10:38:51;;;;;;;16.90;2.95;;;15.30;99.90;;;;;;4950131;28;20035;-77
2022/10/25 10:41:27;;;;;;;17.98;3.50;;;15.20;99.90;;;;;;4950531;28;20466;-78
2022/10/25 10:44:12;;;;;;;13.70;3.75;;;15.20;99.90;;;;;;4946904;28;20443;-78
2022/10/25 10:46:44;;;;;;;11.10;2.45;;;15.70;99.90;;;;;;4921306;29;20464;-83
2022/10/25 10:49:11;;;;;;;13.20;3.20;;;15.80;99.90;;;;;;4948129;29;20053;-85
2022/10/25 10:51:45;;;;;;;10.18;2.92;;;15.50;99.90;;;;;;4948865;28;20079;-81
2022/10/25 10:54:26;;;;;;;17.52;4.60;;;15.80;99.90;;;;;;4933430;29;20122;-74
2022/10/25 10:57:04;;;;;;;12.80;3.92;;;15.90;99.90;;;;;;4949693;28;20467;-85
2022/10/25 10:59:50;;;;;;;11.35;3.35;;;15.50;99.90;;;;;;4942086;28;20077;-79
2022/10/25 11:02:28;;;;;;;16.60;5.63;;;15.30;99.90;;;;;;4949863;28;20047;-78
2022/10/25 11:04:55;;;;;;;12.95;3.08;;;15.50;99.90;;;;;;4950240;28;20042;-74
2022/10/25 11:07:28;;;;;;;11.50;4.13;;;15.60;99.90;;;;;;4948171;29;20426;-79
2022/10/25 11:10:14;;;;;;;12.68;4.45;;;15.20;99.90;;;;;;4940785;29;20039;-80
2022/10/25 11:12:40;;;;;;;11.95;3.40;;;15.40;99.90;;;;;;4947246;29;20578;-79
2022/10/25 11:15:13;;;;;;;15.52;3.75;;;15.40;99.90;;;;;;4950922;28;20090;-80
2022/10/25 11:17:47;;;;;;;11.25;5.70;;;15.40;99.90;;;;;;4949965;28;20047;-79
2022/10/25 11:20:37;;;;;;;14.40;3.70;;;15.40;99.90;;;;;;4930109;29;20047;-75
2022/10/25 11:23:20;;;;;;;;;;;15.50;99.90;;;;;;4915709;29;20062;-80
2022/10/25 11:26:22;;;;;;;9.45;3.55;;;15.70;99.90;;;;;;4951328;29;20294;-80
2022/10/25 11:29:12;;;;;;;9.52;3.50;;;15.80;99.90;;;;;;4903916;29;20085;-75
2022/10/25 11:32:01;;;;;;;11.23;3.22;;;15.40;99.90;;;;;;4936944;29;20425;-81
2022/10/25 11:34:39;;;;;;;19.33;4.90;;;15.60;99.90;;;;;;4932665;29;20047;-77
2022/10/25 11:37:31;;;;;;;11.10;4.50;;;15.20;99.90;;;;;;4938378;29;20463;-77
2022/10/25 11:40:02;;;;;;;16.60;5.38;;;15.50;99.90;;;;;;4946257;29;20058;-74
2022/10/25 11:42:51;;;;;;;13.18;5.40;;;15.30;99.90;;;;;;4949157;28;20051;-76
2022/10/25 11:45:38;;;;;;;11.77;4.63;;;15.50;99.90;;;;;;4914587;29;20047;-78
2022/10/25 11:48:57;;;;;;;12.65;4.25;;;15.90;99.90;;;;;;4931385;28;20127;-77
2022/10/25 11:51:45;;;;;;;9.33;2.43;;;16.10;99.90;;;;;;4868918;29;20077;-74
2022/10/25 11:54:16;;;;;;;11.18;3.17;;;16.20;99.90;;;;;;4944150;28;20818;-75
2022/10/25 11:57:11;;;;;;;13.52;3.35;;;16.00;99.90;;;;;;4931598;28;20123;-75
2022/10/25 11:59:48;;;;;;;11.95;4.82;;;16.00;99.90;;;;;;4943263;28;20043;-76
2022/10/25 12:02:53;;;;;;;8.13;2.25;;;15.90;99.90;;;;;;4945832;28;20145;-73
2022/10/25 12:05:31;;;;;;;16.63;4.03;;;16.10;99.90;;;;;;4924333;29;20047;-75
2022/10/25 12:08:40;;;;;;;11.95;2.85;;;15.90;99.90;;;;;;4947180;28;20047;-75
2022/10/25 12:11:27;;;;;;;15.02;3.33;;;16.00;99.90;;;;;;4921180;29;20051;-75
2022/10/25 12:14:00;;;;;;;13.40;4.28;;;15.70;99.90;;;;;;4951127;28;20058;-77
2022/10/25 12:16:27;;;;;;;15.40;4.47;;;15.90;99.90;;;;;;4953118;29;20502;-74
2022/10/25 12:19:15;;;;;;;13.73;3.38;;;15.70;99.90;;;;;;4934307;29;20508;-73
2022/10/25 12:21:59;;;;;;;10.95;3.60;;;15.60;99.90;;;;;;4921948;29;20052;-76
2022/10/25 12:24:34;;;;;;;12.13;3.00;;;15.80;99.90;;;;;;4946489;28;20043;-74
2022/10/25 12:27:00;;;;;;;23.23;4.57;;;15.50;99.90;;;;;;4932830;29;20043;-76
2022/10/25 12:29:34;;;;;;;9.27;2.67;;;15.30;99.90;;;;;;4953550;29;20131;-76
2022/10/25 12:32:04;;;;;;;12.23;3.35;;;15.30;99.90;;;;;;4954106;29;20047;-75
2022/10/25 12:34:46;;;;;;;9.48;3.92;;;15.70;99.90;;;;;;4934759;29;20118;-75
2022/10/25 12:37:37;;;;;;;10.40;3.80;;;15.60;99.90;;;;;;4935065;29;20070;-75
2022/10/25 12:40:05;;;;;;;12.05;4.22;;;15.40;99.90;;;;;;4952787;28;20062;-76
2022/10/25 12:42:34;;;;;;;11.63;3.25;;;15.60;99.90;;;;;;4941050;29;20085;-77
2022/10/25 12:45:21;;;;;;;6.60;4.30;;;15.80;99.90;;;;;;4934267;29;20056;-77
2022/10/25 12:48:11;;;;;;;9.93;3.97;;;15.80;99.90;;;;;;4918363;29;20060;-77
2022/10/25 12:51:02;;;;;;;21.52;4.60;;;16.00;99.90;;;;;;4936502;29;20091;-75
2022/10/25 12:53:47;;;;;;;14.10;4.03;;;15.90;99.90;;;;;;4952750;29;20122;-76
2022/10/25 12:56:43;;;;;;;15.32;4.55;;;15.70;99.90;;;;;;4911482;29;20632;-78
2022/10/25 12:59:39;;;;;;;10.57;3.70;;;15.80;99.90;;;;;;4902071;29;20056;-77